Time;durP1;ratioP1;P1;durP2;ratioP2;P2;SDS_P1;SDS_P2;PMS_P1;PMS_P2;Temp;Humidity;BMP_temperature;BMP_pressure;BME280_temperature;BME280_humidity;BME280_pressure;Samples;Min_cycle;Max_cycle;Signal;HPM_P1;HPM_P2
2023/03/14 00:01:18;;;;;;;9.57;4.70;;;;;;;8.70;100.00;98628.00;5032396;28;20053;-75
2023/03/14 00:03:44;;;;;;;7.78;4.28;;;;;;;8.63;100.00;98625.69;5032511;28;20099;-76
2023/03/14 00:06:10;;;;;;;8.10;4.65;;;;;;;8.45;100.00;98591.31;5026975;28;20045;-75
2023/03/14 00:08:39;;;;;;;12.18;5.30;;;;;;;8.34;100.00;98575.00;5033325;28;20449;-76
2023/03/14 00:11:11;;;;;;;9.75;5.05;;;;;;;8.74;100.00;98636.28;5032620;28;20075;-75
2023/03/14 00:13:38;;;;;;;8.82;4.63;;;;;;;8.73;100.00;98637.56;5034479;28;20053;-74
2023/03/14 00:16:10;;;;;;;10.60;4.63;;;;;;;8.85;100.00;98646.88;5034890;28;20402;-75
2023/03/14 00:18:36;;;;;;;6.35;4.45;;;;;;;8.87;100.00;98642.19;5017065;28;20033;-75
2023/03/14 00:21:03;;;;;;;8.60;4.38;;;;;;;8.92;100.00;98649.16;5033331;28;20056;-76
2023/03/14 00:23:31;;;;;;;8.73;5.97;;;;;;;9.05;100.00;98635.16;5016922;28;20117;-75
2023/03/14 00:26:15;;;;;;;10.82;4.85;;;;;;;9.09;100.00;98638.50;5000535;28;20469;-75
2023/03/14 00:28:43;;;;;;;13.10;5.25;;;;;;;9.11;100.00;98638.72;5032953;28;20041;-75
2023/03/14 00:31:11;;;;;;;11.00;5.20;;;;;;;9.10;100.00;98640.81;5033046;28;20097;-74
2023/03/14 00:33:37;;;;;;;9.30;4.65;;;;;;;9.12;100.00;98635.38;5033331;28;20033;-76
2023/03/14 00:36:13;;;;;;;8.80;5.10;;;;;;;9.06;100.00;98623.22;5033852;28;20025;-75
2023/03/14 00:38:42;;;;;;;7.50;4.75;;;;;;;9.10;100.00;98615.16;5034584;28;20028;-75
2023/03/14 00:41:14;;;;;;;6.97;4.47;;;;;;;9.15;100.00;98608.66;5034556;28;20176;-77
2023/03/14 00:43:44;;;;;;;8.70;4.55;;;;;;;9.19;100.00;98611.25;5016688;28;20067;-75
2023/03/14 00:46:09;;;;;;;10.10;4.88;;;;;;;9.16;100.00;98603.75;5033739;28;20328;-75
2023/03/14 00:48:37;;;;;;;7.40;4.93;;;;;;;9.24;100.00;98619.78;5033929;28;20034;-75
2023/03/14 00:51:04;;;;;;;8.60;4.85;;;;;;;9.25;100.00;98620.53;5034025;28;20050;-76
2023/03/14 00:53:31;;;;;;;12.60;4.82;;;;;;;9.28;100.00;98622.34;5032558;28;20493;-75
2023/03/14 00:56:10;;;;;;;7.93;4.85;;;;;;;9.33;100.00;98620.78;5034041;28;20033;-75
2023/03/14 00:58:37;;;;;;;8.18;4.53;;;;;;;9.40;100.00;98655.19;5034010;28;20033;-75
2023/03/14 01:01:11;;;;;;;7.72;4.50;;;;;;;9.51;100.00;98680.81;5030965;28;20068;-73
2023/03/14 01:03:36;;;;;;;9.32;5.03;;;;;;;9.70;100.00;98692.38;5032960;28;20029;-75
2023/03/14 01:06:20;;;;;;;11.48;4.70;;;;;;;9.57;100.00;98670.16;5032696;28;20036;-75
2023/03/14 01:08:47;;;;;;;10.23;5.75;;;;;;;9.48;100.00;98675.38;5035342;28;20490;-75
2023/03/14 01:11:22;;;;;;;12.02;5.20;;;;;;;9.42;100.00;98671.78;5034925;28;20104;-75
2023/03/14 01:13:48;;;;;;;11.77;5.10;;;;;;;9.46;100.00;98663.72;5034056;28;20120;-76
2023/03/14 01:16:13;;;;;;;8.35;4.07;;;;;;;9.52;100.00;98670.97;5032473;28;20064;-75
2023/03/14 01:18:40;;;;;;;6.55;4.20;;;;;;;9.58;100.00;98656.69;5032817;28;20033;-75
2023/03/14 01:21:22;;;;;;;4.57;3.25;;;;;;;9.74;100.00;98655.06;5016034;28;20107;-74
2023/03/14 01:23:50;;;;;;;4.65;3.20;;;;;;;9.85;100.00;98657.84;5015959;28;20111;-75
2023/03/14 01:26:32;;;;;;;5.60;3.72;;;;;;;10.03;100.00;98655.13;5032598;28;20155;-75
2023/03/14 01:28:59;;;;;;;8.02;3.70;;;;;;;10.14;100.00;98656.34;5032379;28;20042;-74
2023/03/14 01:31:29;;;;;;;7.05;3.60;;;;;;;10.22;100.00;98648.75;5032300;28;20025;-80
2023/03/14 01:33:56;;;;;;;6.97;4.00;;;;;;;10.25;100.00;98633.41;5032427;28;20132;-79
2023/03/14 01:36:23;;;;;;;5.32;3.88;;;;;;;10.34;100.00;98630.22;5033332;28;20036;-79
2023/03/14 01:38:49;;;;;;;4.63;3.20;;;;;;;10.38;100.00;98614.34;5033654;28;20014;-79
2023/03/14 01:41:22;;;;;;;5.60;3.72;;;;;;;10.43;100.00;98595.63;5033515;28;20106;-80
2023/03/14 01:43:48;;;;;;;4.68;3.15;;;;;;;10.39;100.00;98581.63;5015301;28;20402;-78
2023/03/14 01:46:35;;;;;;;5.53;3.47;;;;;;;10.50;100.00;98577.91;5030359;28;20336;-78
2023/03/14 01:49:06;;;;;;;6.75;3.80;;;;;;;10.53;100.00;98602.53;5032149;28;20030;-79
2023/03/14 01:51:52;;;;;;;5.72;3.65;;;;;;;10.54;100.00;98604.06;5030740;28;20036;-78
2023/03/14 01:54:49;;;;;;;6.38;3.53;;;;;;;10.55;100.00;98599.91;5031642;28;20422;-79
2023/03/14 01:57:19;;;;;;;7.25;3.63;;;;;;;10.49;100.00;98576.34;5031775;28;20485;-79
2023/03/14 01:59:56;;;;;;;8.30;3.63;;;;;;;10.42;100.00;98574.09;5030924;28;20026;-78
2023/03/14 02:02:24;;;;;;;5.03;3.55;;;;;;;10.32;100.00;98567.97;5031650;28;20435;-78
2023/03/14 02:04:51;;;;;;;5.10;3.60;;;;;;;10.04;100.00;98525.41;5032497;28;20042;-79
2023/03/14 02:07:40;;;;;;;7.28;4.15;;;;;;;10.18;100.00;98536.97;5030324;28;20041;-80
2023/03/14 02:10:07;;;;;;;6.70;3.63;;;;;;;10.11;100.00;98527.66;5031568;28;20120;-79
2023/03/14 02:12:33;;;;;;;6.38;4.07;;;;;;;10.00;100.00;98493.53;5030715;28;20026;-80
2023/03/14 02:15:01;;;;;;;14.00;5.97;;;;;;;9.99;100.00;98519.72;5031625;28;20163;-79
2023/03/14 02:17:28;;;;;;;9.48;5.28;;;;;;;9.91;100.00;98522.41;5031491;28;20026;-79
2023/03/14 02:20:15;;;;;;;9.75;4.15;;;;;;;9.80;100.00;98522.50;5035529;28;20033;-79
2023/03/14 02:22:45;;;;;;;11.02;4.60;;;;;;;9.74;100.00;98512.47;5035698;28;20364;-78
2023/03/14 02:25:48;;;;;;;7.55;4.45;;;;;;;9.66;100.00;98512.22;5037109;28;20034;-80
2023/03/14 02:28:14;;;;;;;9.57;5.18;;;;;;;9.56;100.00;98491.81;5037142;28;20052;-79
2023/03/14 02:30:41;;;;;;;9.05;4.88;;;;;;;9.47;100.00;98475.03;5035698;28;20184;-80
2023/03/14 02:33:09;;;;;;;9.70;4.07;;;;;;;9.48;100.00;98473.75;5002498;28;20505;-76
2023/03/14 02:35:42;;;;;;;7.07;4.32;;;;;;;9.40;100.00;98464.19;5035397;28;20036;-75
2023/03/14 02:39:01;;;;;;;9.23;4.30;;;;;;;9.45;100.00;98471.16;5035148;28;20025;-76
2023/03/14 02:41:45;;;;;;;8.02;4.20;;;;;;;9.46;100.00;98458.47;5034227;28;20379;-76
2023/03/14 02:44:12;;;;;;;7.60;4.65;;;;;;;9.40;100.00;98455.66;5033877;28;20588;-76
2023/03/14 02:46:37;;;;;;;8.65;4.03;;;;;;;9.36;100.00;98443.75;5033244;28;20483;-75
2023/03/14 02:49:07;;;;;;;15.38;4.65;;;;;;;9.38;100.00;98466.03;5019958;28;20068;-76
2023/03/14 02:51:33;;;;;;;6.60;4.72;;;;;;;9.30;100.00;98465.09;5002287;28;20135;-76
2023/03/14 02:53:59;;;;;;;7.03;4.38;;;;;;;9.17;100.00;98435.09;5035163;28;20029;-76
2023/03/14 02:56:25;;;;;;;6.22;3.63;;;;;;;9.19;100.00;98448.81;5034819;28;20390;-75
2023/03/14 02:58:51;;;;;;;5.50;3.50;;;;;;;9.31;100.00;98453.13;5034973;28;20025;-76
2023/03/14 03:01:18;;;;;;;6.93;4.15;;;;;;;9.29;100.00;98430.09;5035234;28;20057;-76
2023/03/14 03:03:44;;;;;;;7.88;3.67;;;;;;;9.35;100.00;98416.56;5034864;28;20037;-75
2023/03/14 03:06:10;;;;;;;5.95;3.92;;;;;;;9.43;100.00;98428.16;5034928;28;20041;-74
2023/03/14 03:08:35;;;;;;;8.63;2.97;;;;;;;9.56;100.00;98411.97;5034693;28;20550;-74
2023/03/14 03:11:01;;;;;;;8.43;3.22;;;;;;;9.63;100.00;98396.38;5018264;28;20026;-74
2023/03/14 03:13:27;;;;;;;6.80;3.00;;;;;;;9.63;100.00;98377.19;5035886;28;20037;-74
2023/03/14 03:15:53;;;;;;;4.57;3.25;;;;;;;9.83;100.00;98392.31;5034484;28;20168;-74
2023/03/14 03:18:34;;;;;;;4.95;2.85;;;;;;;9.89;100.00;98401.59;5035265;28;20188;-73
2023/03/14 03:21:09;;;;;;;7.78;3.08;;;;;;;9.94;100.00;98395.03;5035764;28;20040;-75
2023/03/14 03:23:36;;;;;;;4.03;2.70;;;;;;;10.03;100.00;98389.75;5036113;28;20151;-74
2023/03/14 03:26:03;;;;;;;5.97;3.13;;;;;;;10.09;100.00;98395.38;5035640;28;20462;-74
2023/03/14 03:28:29;;;;;;;5.13;3.25;;;;;;;10.14;100.00;98399.50;5035408;28;20061;-75
2023/03/14 03:30:56;;;;;;;5.13;3.33;;;;;;;10.18;100.00;98406.44;5034393;28;20049;-74
2023/03/14 03:33:31;;;;;;;5.55;3.05;;;;;;;10.11;100.00;98407.81;5035901;28;20188;-74
2023/03/14 03:35:57;;;;;;;7.15;2.80;;;;;;;9.99;100.00;98383.56;5032973;28;20124;-74
2023/03/14 03:38:23;;;;;;;4.40;3.10;;;;;;;9.98;100.00;98396.28;5034158;28;20029;-74
2023/03/14 03:40:50;;;;;;;6.55;2.85;;;;;;;9.87;100.00;98385.00;5034406;28;20029;-75
2023/03/14 03:43:35;;;;;;;7.07;3.35;;;;;;;9.82;100.00;98379.34;5017725;28;20029;-74
2023/03/14 03:46:07;;;;;;;7.82;2.92;;;;;;;9.75;100.00;98345.69;5034992;28;20132;-74
2023/03/14 03:48:32;;;;;;;;;;;;;;;9.86;100.00;98359.84;5034223;28;20029;-75
2023/03/14 03:50:58;;;;;;;7.47;3.50;;;;;;;9.82;100.00;98345.13;5035253;28;19916;-73
2023/03/14 03:53:24;;;;;;;7.80;3.03;;;;;;;9.80;100.00;98359.91;5035060;28;20494;-73
2023/03/14 03:56:04;;;;;;;6.05;3.38;;;;;;;9.78;100.00;98361.75;5036177;28;20032;-74
2023/03/14 03:58:30;;;;;;;5.20;3.38;;;;;;;9.79;100.00;98358.34;5035561;28;20044;-75
2023/03/14 04:00:56;;;;;;;4.75;2.90;;;;;;;9.77;100.00;98360.22;5035156;28;20025;-75
2023/03/14 04:03:23;;;;;;;7.28;2.97;;;;;;;9.77;100.00;98352.44;5035737;28;20025;-74
2023/03/14 04:06:06;;;;;;;8.98;3.30;;;;;;;9.81;100.00;98352.13;5034986;28;20025;-74
2023/03/14 04:08:35;;;;;;;2.88;2.45;;;;;;;9.85;100.00;98353.38;5033952;28;20104;-74
2023/03/14 04:11:06;;;;;;;4.78;2.67;;;;;;;9.88;100.00;98346.59;5017444;28;20026;-73
2023/03/14 04:13:33;;;;;;;3.67;2.70;;;;;;;9.97;100.00;98354.03;5034092;28;20128;-74
2023/03/14 04:15:59;;;;;;;4.90;3.10;;;;;;;9.91;100.00;98334.13;5033507;28;20033;-75
2023/03/14 04:18:25;;;;;;;4.05;2.70;;;;;;;9.97;100.00;98334.81;5033359;28;20030;-74
2023/03/14 04:20:55;;;;;;;9.52;2.50;;;;;;;10.09;100.00;98333.38;5034872;28;20052;-75
2023/03/14 04:23:24;;;;;;;5.90;2.88;;;;;;;10.19;100.00;98333.75;5017057;28;20115;-75
2023/03/14 04:25:51;;;;;;;3.13;2.40;;;;;;;10.34;100.00;98324.75;5030332;28;20489;-74
2023/03/14 04:28:17;;;;;;;5.53;2.95;;;;;;;10.31;100.00;98306.63;5033087;28;20107;-73
2023/03/14 04:30:42;;;;;;;5.13;3.13;;;;;;;10.36;100.00;98308.63;5032997;28;20475;-73
2023/03/14 04:33:12;;;;;;;4.82;3.08;;;;;;;10.37;100.00;98290.19;5033028;28;20043;-73
2023/03/14 04:35:39;;;;;;;6.55;2.50;;;;;;;10.47;100.00;98282.78;5034250;28;20470;-74
2023/03/14 04:38:05;;;;;;;4.75;3.33;;;;;;;10.52;100.00;98281.16;5034432;28;20029;-75
2023/03/14 04:40:30;;;;;;;5.78;3.08;;;;;;;10.52;100.00;98284.78;5000007;28;20036;-73
2023/03/14 04:42:57;;;;;;;4.72;3.10;;;;;;;10.55;100.00;98286.53;5016316;28;20033;-74
2023/03/14 04:45:23;;;;;;;4.97;3.13;;;;;;;10.52;100.00;98289.72;5032422;28;20061;-75
2023/03/14 04:47:49;;;;;;;5.95;2.72;;;;;;;10.50;100.00;98320.88;5033311;28;20025;-73
2023/03/14 04:50:14;;;;;;;4.97;2.75;;;;;;;10.47;100.00;98330.53;5032771;28;20083;-72
2023/03/14 04:52:40;;;;;;;4.70;3.00;;;;;;;10.28;100.00;98276.31;5034216;28;20040;-75
2023/03/14 04:55:08;;;;;;;5.00;3.30;;;;;;;10.42;100.00;98277.91;5034203;28;20075;-75
2023/03/14 04:57:33;;;;;;;5.07;3.10;;;;;;;10.39;100.00;98293.25;5034873;28;20047;-74
2023/03/14 04:59:58;;;;;;;5.80;3.35;;;;;;;10.28;100.00;98272.69;5032493;28;20626;-73
2023/03/14 05:02:25;;;;;;;9.63;3.10;;;;;;;10.41;100.00;98309.84;5033817;28;20462;-74
2023/03/14 05:04:53;;;;;;;7.07;3.03;;;;;;;10.41;100.00;98324.13;5033981;28;20033;-74
2023/03/14 05:07:20;;;;;;;4.90;2.60;;;;;;;10.35;100.00;98317.72;5032519;28;20026;-74
2023/03/14 05:09:45;;;;;;;5.05;2.90;;;;;;;10.33;100.00;98321.13;5033814;28;20075;-74
2023/03/14 05:12:12;;;;;;;7.75;3.15;;;;;;;10.36;100.00;98313.56;5032770;28;20032;-75
2023/03/14 05:14:44;;;;;;;6.25;3.05;;;;;;;10.31;100.00;98305.84;5033578;28;20025;-74
2023/03/14 05:17:11;;;;;;;5.88;3.83;;;;;;;10.22;100.00;98281.31;5034383;28;20033;-74
2023/03/14 05:19:38;;;;;;;3.95;3.15;;;;;;;10.20;100.00;98283.94;5034428;28;20036;-74
2023/03/14 05:22:04;;;;;;;8.60;3.35;;;;;;;10.21;100.00;98268.34;5032744;28;20051;-73
2023/03/14 05:24:30;;;;;;;5.25;3.38;;;;;;;10.21;100.00;98273.28;5016270;28;20044;-74
2023/03/14 05:26:58;;;;;;;6.50;3.60;;;;;;;10.23;100.00;98262.13;5032110;28;20043;-74
2023/03/14 05:29:24;;;;;;;6.10;3.55;;;;;;;10.17;100.00;98255.72;5031929;28;20048;-74
2023/03/14 05:31:50;;;;;;;6.85;3.50;;;;;;;10.13;100.00;98266.66;5033642;28;20465;-74
2023/03/14 05:34:16;;;;;;;7.15;3.42;;;;;;;10.08;100.00;98263.34;5032269;28;20033;-76
2023/03/14 05:36:42;;;;;;;6.95;3.00;;;;;;;10.05;100.00;98266.50;5015585;28;20443;-77
2023/03/14 05:39:09;;;;;;;6.25;2.88;;;;;;;10.01;100.00;98269.66;5033014;28;20025;-77
2023/03/14 05:41:41;;;;;;;4.88;3.40;;;;;;;10.00;100.00;98270.19;5041575;28;20044;-75
2023/03/14 05:44:06;;;;;;;7.18;3.60;;;;;;;9.98;100.00;98276.47;5053461;28;20121;-76
2023/03/14 05:46:32;;;;;;;7.70;3.65;;;;;;;9.65;100.00;98226.25;5052711;28;20490;-78
2023/03/14 05:48:58;;;;;;;6.43;3.13;;;;;;;9.96;100.00;98272.59;5035215;28;20142;-80
2023/03/14 05:51:24;;;;;;;5.85;3.13;;;;;;;9.86;100.00;98260.78;5054247;28;20029;-79
2023/03/14 05:53:50;;;;;;;7.88;3.75;;;;;;;9.94;100.00;98272.38;5052408;28;20122;-78
2023/03/14 05:56:17;;;;;;;3.80;3.33;;;;;;;9.95;100.00;98271.81;5055602;28;20033;-80
2023/03/14 05:58:57;;;;;;;7.30;3.55;;;;;;;9.95;100.00;98266.09;5049911;28;20490;-77
2023/03/14 06:01:24;;;;;;;3.42;3.03;;;;;;;9.98;100.00;98269.97;5053601;28;20049;-79
2023/03/14 06:03:50;;;;;;;6.22;3.40;;;;;;;10.03;100.00;98280.53;5053073;28;20029;-78
2023/03/14 06:06:16;;;;;;;4.88;3.58;;;;;;;10.12;100.00;98285.88;5051720;28;20048;-80
2023/03/14 06:08:43;;;;;;;5.88;3.10;;;;;;;10.13;100.00;98292.34;5053064;28;20029;-79
2023/03/14 06:11:09;;;;;;;5.78;4.13;;;;;;;10.21;100.00;98293.28;5053115;28;20025;-81
2023/03/14 06:13:35;;;;;;;7.40;3.50;;;;;;;10.24;100.00;98269.34;5053130;28;20107;-78
2023/03/14 06:16:01;;;;;;;102.50;97.80;;;;;;;10.39;100.00;98278.22;5052642;28;20072;-77
2023/03/14 06:18:42;;;;;;;4.85;3.03;;;;;;;10.42;100.00;98277.16;5053048;28;19919;-80
2023/03/14 06:21:09;;;;;;;6.60;2.92;;;;;;;10.51;100.00;98279.59;5052445;28;20112;-78
2023/03/14 06:23:41;;;;;;;4.57;3.22;;;;;;;10.64;100.00;98279.66;5051402;28;20025;-77
2023/03/14 06:26:08;;;;;;;;;;;;;;;10.78;100.00;98292.66;5051986;28;20032;-81
2023/03/14 06:28:35;;;;;;;977.70;529.17;;;;;;;10.97;100.00;98295.50;5051813;28;20346;-80
2023/03/14 06:31:01;;;;;;;6.97;3.28;;;;;;;10.92;100.00;98280.00;5052125;28;20086;-78
2023/03/14 06:33:26;;;;;;;6.68;3.88;;;;;;;11.23;100.00;98311.94;5050680;28;20032;-81
2023/03/14 06:35:51;;;;;;;6.45;3.30;;;;;;;11.35;100.00;98330.47;5051634;28;20064;-83
2023/03/14 06:38:18;;;;;;;5.80;3.50;;;;;;;11.34;100.00;98323.97;5053275;28;20231;-80
2023/03/14 06:40:43;;;;;;;5.13;3.55;;;;;;;11.25;100.00;98327.25;5056441;28;20024;-78
2023/03/14 06:43:09;;;;;;;6.85;3.42;;;;;;;11.19;100.00;98322.94;5050850;28;20470;-80
2023/03/14 06:45:34;;;;;;;7.85;3.63;;;;;;;11.09;100.00;98318.94;5049912;28;20049;-79
2023/03/14 06:48:00;;;;;;;5.60;3.38;;;;;;;11.07;100.00;98319.50;5048574;28;20447;-79
2023/03/14 06:50:25;;;;;;;8.27;3.42;;;;;;;11.16;100.00;98321.19;5051579;28;20021;-79
2023/03/14 06:52:51;;;;;;;6.30;2.90;;;;;;;11.20;100.00;98335.94;5050358;28;20486;-79
2023/03/14 06:55:17;;;;;;;10.23;3.90;;;;;;;11.17;100.00;98346.34;5055582;28;20037;-79
2023/03/14 06:57:44;;;;;;;6.28;3.70;;;;;;;11.23;100.00;98332.75;5056856;28;20040;-80
2023/03/14 07:00:13;;;;;;;173.85;92.63;;;;;;;11.31;100.00;98341.47;5063980;28;20032;-80
2023/03/14 07:02:40;;;;;;;9.18;3.55;;;;;;;11.24;100.00;98316.34;5060867;28;20029;-80
2023/03/14 07:05:10;;;;;;;7.32;3.40;;;;;;;11.24;100.00;98325.72;5059883;28;20065;-82
2023/03/14 07:07:36;;;;;;;6.47;3.30;;;;;;;11.23;100.00;98324.16;5058144;28;20068;-82
2023/03/14 07:10:02;;;;;;;6.50;3.63;;;;;;;11.19;100.00;98326.56;5058075;28;20037;-81
2023/03/14 07:12:27;;;;;;;7.43;2.72;;;;;;;11.19;100.00;98332.28;5056542;28;20466;-80
2023/03/14 07:14:53;;;;;;;8.90;3.30;;;;;;;11.13;100.00;98339.41;5055137;28;20367;-79
2023/03/14 07:17:20;;;;;;;5.47;3.40;;;;;;;11.09;100.00;98341.78;5054693;28;20032;-81
2023/03/14 07:19:47;;;;;;;5.03;3.65;;;;;;;11.06;100.00;98343.66;5056109;28;20070;-76
2023/03/14 07:22:12;;;;;;;10.35;3.72;;;;;;;11.03;100.00;98353.31;5055238;28;20489;-75
2023/03/14 07:24:37;;;;;;;4.53;3.10;;;;;;;10.99;100.00;98356.50;5054468;28;20021;-76
2023/03/14 07:27:05;;;;;;;4.68;3.15;;;;;;;11.01;100.00;98341.66;5056190;28;20024;-79
2023/03/14 07:29:31;;;;;;;6.40;3.45;;;;;;;10.96;100.00;98328.25;5055717;28;20048;-80
2023/03/14 07:31:59;;;;;;;8.75;3.78;;;;;;;11.02;100.00;98336.72;5055946;28;20470;-79
2023/03/14 07:34:25;;;;;;;12.13;4.30;;;;;;;11.01;100.00;98347.38;5055469;28;20041;-80
2023/03/14 07:36:51;;;;;;;6.60;3.45;;;;;;;10.93;100.00;98347.22;5037718;28;20057;-78
2023/03/14 07:39:18;;;;;;;5.32;3.53;;;;;;;10.86;100.00;98339.31;5055143;28;20489;-74
2023/03/14 07:41:43;;;;;;;7.75;3.97;;;;;;;10.87;100.00;98337.22;5055517;28;20070;-74
2023/03/14 07:44:08;;;;;;;8.48;4.25;;;;;;;10.79;100.00;98325.63;5056104;28;20413;-84
2023/03/14 07:46:34;;;;;;;5.90;3.38;;;;;;;10.76;100.00;98323.88;5056031;28;20126;-74
2023/03/14 07:49:00;;;;;;;6.85;3.35;;;;;;;10.75;100.00;98336.63;5053603;28;20429;-73
2023/03/14 07:51:27;;;;;;;7.95;3.25;;;;;;;10.65;100.00;98321.19;5055156;28;20032;-74
2023/03/14 07:53:53;;;;;;;8.43;3.70;;;;;;;10.71;100.00;98324.72;5055368;28;20474;-79
2023/03/14 07:56:19;;;;;;;10.13;4.25;;;;;;;10.59;100.00;98314.78;5060926;28;20044;-79
2023/03/14 07:58:46;;;;;;;7.95;4.10;;;;;;;10.54;100.00;98342.09;5058232;28;20120;-78
2023/03/14 08:01:13;;;;;;;10.82;3.60;;;;;;;10.47;100.00;98330.53;5055997;28;20066;-78
2023/03/14 08:03:39;;;;;;;7.75;4.05;;;;;;;10.52;100.00;98329.69;5054149;28;20032;-78
2023/03/14 08:06:05;;;;;;;6.68;3.70;;;;;;;10.46;100.00;98318.34;5055406;28;20020;-77
2023/03/14 08:08:34;;;;;;;10.57;3.88;;;;;;;10.33;100.00;98317.50;5054866;28;20029;-78
2023/03/14 08:11:12;;;;;;;5.97;3.35;;;;;;;10.36;100.00;98319.28;5054988;28;20382;-78
2023/03/14 08:13:37;;;;;;;7.97;3.65;;;;;;;10.08;100.00;98271.91;5038056;28;20029;-77
2023/03/14 08:16:04;;;;;;;7.72;3.90;;;;;;;10.17;100.00;98296.44;5054620;28;20082;-79
2023/03/14 08:18:31;;;;;;;13.00;3.95;;;;;;;10.06;100.00;98285.16;5053694;28;20041;-76
2023/03/14 08:20:57;;;;;;;9.85;4.15;;;;;;;9.99;100.00;98312.22;5020164;28;20033;-78
2023/03/14 08:23:24;;;;;;;8.57;3.55;;;;;;;9.86;100.00;98328.47;5054764;28;20037;-77
2023/03/14 08:25:50;;;;;;;8.57;3.95;;;;;;;9.78;100.00;98339.72;5054976;28;20025;-79
2023/03/14 08:28:18;;;;;;;10.00;4.25;;;;;;;9.72;100.00;98343.91;5020126;28;20050;-79
2023/03/14 08:30:44;;;;;;;9.38;3.67;;;;;;;9.66;100.00;98338.25;5053187;28;20045;-76
2023/03/14 08:33:12;;;;;;;8.80;4.43;;;;;;;9.69;100.00;98343.66;5053355;28;20552;-76
2023/03/14 08:35:39;;;;;;;7.50;4.60;;;;;;;9.65;100.00;98342.41;5051221;28;20057;-76
2023/03/14 08:38:06;;;;;;;10.82;4.90;;;;;;;9.65;100.00;98353.81;5054568;28;20494;-78
2023/03/14 08:40:31;;;;;;;10.10;4.18;;;;;;;9.65;100.00;98359.53;5054556;28;20032;-77
2023/03/14 08:42:56;;;;;;;7.45;4.45;;;;;;;9.64;100.00;98358.00;5051226;28;20033;-77
2023/03/14 08:45:24;;;;;;;7.38;4.22;;;;;;;9.71;100.00;98371.66;5052634;28;20029;-78
2023/03/14 08:47:51;;;;;;;14.73;4.50;;;;;;;9.75;100.00;98388.47;5054045;28;20021;-79
2023/03/14 08:50:17;;;;;;;7.63;4.53;;;;;;;9.77;100.00;98380.94;5054386;28;20093;-75
2023/03/14 08:52:43;;;;;;;8.98;4.22;;;;;;;9.79;100.00;98386.88;5062532;28;20047;-74
2023/03/14 08:55:09;;;;;;;11.10;4.30;;;;;;;9.89;100.00;98373.81;5064466;28;20024;-73
2023/03/14 08:57:36;;;;;;;10.75;5.07;;;;;;;10.03;100.00;98386.13;5047184;28;20512;-74
2023/03/14 09:00:14;;;;;;;7.78;4.07;;;;;;;10.21;100.00;98390.31;5062040;28;20017;-74
2023/03/14 09:02:46;;;;;;;8.50;4.22;;;;;;;10.35;100.00;98380.53;5067093;28;20115;-74
2023/03/14 09:05:13;;;;;;;7.68;4.22;;;;;;;10.49;100.00;98385.00;5067067;28;20037;-76
2023/03/14 09:07:43;;;;;;;8.55;4.45;;;;;;;10.56;100.00;98401.53;5073298;28;20044;-78
2023/03/14 09:10:10;;;;;;;8.45;4.05;;;;;;;10.59;100.00;98399.69;5073325;28;20054;-78
2023/03/14 09:12:36;;;;;;;11.75;4.03;;;;;;;10.59;100.00;98386.19;5072159;28;20032;-75
2023/03/14 09:15:01;;;;;;;7.53;3.53;;;;;;;10.63;100.00;98388.75;5072580;28;20041;-82
2023/03/14 09:17:29;;;;;;;7.78;4.18;;;;;;;10.64;100.00;98390.25;5073536;28;20056;-79
2023/03/14 09:19:56;;;;;;;7.00;4.20;;;;;;;10.63;100.00;98391.59;5072316;28;20056;-78
2023/03/14 09:22:22;;;;;;;10.15;4.05;;;;;;;10.68;100.00;98380.06;5073462;28;20039;-77
2023/03/14 09:24:47;;;;;;;8.18;4.70;;;;;;;10.74;100.00;98377.13;5073456;28;20092;-79
2023/03/14 09:27:18;;;;;;;10.63;5.30;;;;;;;10.79;100.00;98373.44;5071805;28;20473;-80
2023/03/14 09:29:43;;;;;;;7.95;4.05;;;;;;;10.89;100.00;98389.63;5072199;28;20294;-78
2023/03/14 09:32:15;;;;;;;5.68;3.75;;;;;;;10.88;100.00;98399.53;5078538;28;20078;-82
2023/03/14 09:34:41;;;;;;;7.20;4.05;;;;;;;10.91;100.00;98398.47;5079860;28;20542;-80
2023/03/14 09:37:07;;;;;;;10.38;3.70;;;;;;;10.93;100.00;98415.81;5074234;28;20119;-79
2023/03/14 09:39:34;;;;;;;5.88;3.50;;;;;;;10.93;100.00;98412.97;5073743;28;20020;-78
2023/03/14 09:42:03;;;;;;;6.75;3.45;;;;;;;10.92;100.00;98427.81;5071596;28;20032;-77
2023/03/14 09:44:42;;;;;;;7.32;3.78;;;;;;;10.91;100.00;98429.88;5055257;28;20066;-78
2023/03/14 09:47:12;;;;;;;6.25;3.92;;;;;;;10.85;100.00;98426.34;5069824;28;20057;-75
2023/03/14 09:49:42;;;;;;;5.35;3.45;;;;;;;10.80;100.00;98421.47;5072857;28;20484;-77
2023/03/14 09:52:31;;;;;;;8.10;3.47;;;;;;;10.75;100.00;98430.88;5054520;28;20044;-77
2023/03/14 09:55:09;;;;;;;8.63;3.83;;;;;;;10.71;100.00;98429.66;5054540;28;20115;-75
2023/03/14 09:57:36;;;;;;;9.23;3.80;;;;;;;10.68;100.00;98425.03;5071325;28;20040;-75
2023/03/14 10:00:24;;;;;;;5.07;3.67;;;;;;;10.71;100.00;98429.66;5070642;28;20021;-75
2023/03/14 10:03:04;;;;;;;7.38;4.35;;;;;;;10.69;100.00;98424.47;5070712;28;20116;-75
2023/03/14 10:05:31;;;;;;;13.02;5.32;;;;;;;10.66;100.00;98425.56;5048469;28;20494;-77
2023/03/14 10:07:58;;;;;;;36.70;8.02;;;;;;;10.66;100.00;98428.41;5050975;28;20086;-76
2023/03/14 10:10:29;;;;;;;11.05;4.82;;;;;;;10.66;100.00;98428.41;5052384;28;20110;-79
2023/03/14 10:13:19;;;;;;;14.25;5.30;;;;;;;10.77;100.00;98434.00;5051357;28;20055;-78
2023/03/14 10:15:53;;;;;;;25.67;7.72;;;;;;;10.93;100.00;98418.66;5051756;28;20024;-76
2023/03/14 10:18:20;;;;;;;10.88;5.13;;;;;;;11.11;100.00;98427.78;5051045;28;20044;-76
2023/03/14 10:21:13;;;;;;;7.22;4.70;;;;;;;11.27;100.00;98418.22;5051178;28;20021;-76
2023/03/14 10:23:47;;;;;;;49.38;9.38;;;;;;;11.44;100.00;98412.22;5036565;28;20045;-78
2023/03/14 10:26:19;;;;;;;56.97;10.15;;;;;;;11.52;100.00;98418.84;5052555;28;20504;-78
2023/03/14 10:28:48;;;;;;;9.35;4.78;;;;;;;11.68;100.00;98414.91;5031420;28;20486;-77
2023/03/14 10:31:15;;;;;;;11.18;4.75;;;;;;;11.80;100.00;98416.25;5034032;28;20029;-77
2023/03/14 10:33:58;;;;;;;8.00;4.68;;;;;;;12.07;100.00;98412.09;5052532;28;20041;-76
2023/03/14 10:36:28;;;;;;;8.48;4.65;;;;;;;12.06;100.00;98407.69;5052947;28;20031;-79
2023/03/14 10:39:21;;;;;;;12.40;5.38;;;;;;;12.28;100.00;98404.41;5034690;28;20033;-78
2023/03/14 10:41:53;;;;;;;8.40;4.80;;;;;;;12.40;100.00;98404.97;5056252;28;20025;-78
2023/03/14 10:44:24;;;;;;;11.30;5.35;;;;;;;12.49;100.00;98395.94;5055909;28;20107;-79
2023/03/14 10:46:55;;;;;;;;;;;;;;;12.59;100.00;98404.84;5050255;28;20101;-84
2023/03/14 10:49:33;;;;;;;11.13;5.60;;;;;;;12.66;100.00;98407.78;5036352;28;19916;-84
2023/03/14 10:52:29;;;;;;;10.45;6.07;;;;;;;12.66;100.00;98392.69;5035524;28;20028;-86
2023/03/14 10:55:10;;;;;;;11.68;5.32;;;;;;;12.76;100.00;98405.25;5023151;28;20037;-80
2023/03/14 10:57:40;;;;;;;8.93;5.53;;;;;;;12.75;100.00;98386.50;5033895;28;20059;-79
2023/03/14 11:00:16;;;;;;;13.63;5.45;;;;;;;13.01;100.00;98405.72;5035142;28;20195;-84
2023/03/14 11:03:01;;;;;;;11.18;5.18;;;;;;;13.18;100.00;98399.59;5034954;28;20853;-81
2023/03/14 11:06:21;;;;;;;8.00;4.68;;;;;;;13.45;100.00;98403.88;5036138;28;20033;-74
2023/03/14 11:09:27;;;;;;;14.57;5.20;;;;;;;13.79;100.00;98400.94;5018859;28;20033;-75
2023/03/14 11:12:24;;;;;;;11.45;5.38;;;;;;;13.98;100.00;98395.78;5036020;28;20037;-75
2023/03/14 11:15:28;;;;;;;10.18;4.40;;;;;;;14.04;100.00;98399.25;5034303;28;20451;-74
2023/03/14 11:18:31;;;;;;;8.18;4.32;;;;;;;14.13;100.00;98398.75;5035611;28;20025;-74
2023/03/14 11:21:09;;;;;;;6.45;3.80;;;;;;;14.21;100.00;98385.19;5036589;28;20045;-78
2023/03/14 11:23:47;;;;;;;31.70;5.97;;;;;;;14.35;100.00;98375.13;5034622;28;20030;-81
2023/03/14 11:27:01;;;;;;;6.43;3.20;;;;;;;14.57;100.00;98381.56;5034396;28;20028;-78
2023/03/14 11:29:40;;;;;;;20.55;5.25;;;;;;;14.79;97.16;98373.03;5041582;28;20034;-80
2023/03/14 11:32:40;;;;;;;4.25;2.47;;;;;;;15.04;95.38;98379.06;5048502;28;20032;-78
2023/03/14 11:35:14;;;;;;;6.38;2.63;;;;;;;14.99;93.35;98348.38;5036507;28;20086;-80
2023/03/14 11:37:56;;;;;;;5.40;2.20;;;;;;;15.21;91.62;98379.31;5035908;28;20174;-81
2023/03/14 11:40:30;;;;;;;3.80;2.80;;;;;;;15.06;91.82;98369.88;5036239;28;20106;-80
2023/03/14 11:43:08;;;;;;;5.25;3.30;;;;;;;14.89;93.14;98366.75;5038430;28;20049;-82